Log in Register

Login to your account

Username *
Password *
Remember Me

Create an account

Fields marked with an asterisk (*) are required.
Name *
Username *
Password *
Verify password *
Email *
Verify email *

Nous contacter

 Téléphone : +33 (0)4 79 54 41 81

Coordonnées détaillées et accès : cliquez ici

 
LFLB °C
    Ferienhaus Ostsee
[source: ADDS]
METAR
LFLB 070900Z AUTO 01010KT 9999 -RA FEW017/// SCT026/// BKN037/// ///TCU 11/10 Q1017 TEMPO 4000 RA =
TAF LFLB 070800Z 0709/0809 02008KT 9999 BKN040 TEMPO 0709/0711 4000 RA SCT012 SCT018TCU OVC020 PROB40 TEMPO 0711/0715 VRB10KT SHRA SCT030TCU BKN035 BECMG 0716/0718 CAVOK BECMG 0718/0720 VRB02KT
TAF
TAF LFLB 070800Z 0709/0809 02008KT 9999 BKN040 TEMPO 0709/0711 4000 RA SCT012 SCT018TCU OVC020 PROB40 TEMPO 0711/0715 VRB10KT SHRA SCT030TCU BKN035 BECMG 0716/0718 CAVOK BECMG 0718/0720 VRB02KT =
SR / SS: 04:15 / 18:51 UTC (Lever/Coucher du soleil le 2021-05-07)
JSN Boot template designed by JoomlaShine.com